sensor_id;sensor_type;location;lat;lon;timestamp;P1;durP1;ratioP1;P2;durP2;ratioP2
19183;SDS011;9724;51.194;6.856;2023-02-28T00:00:18;6.80;;;3.50;;
19183;SDS011;9724;51.194;6.856;2023-02-28T00:02:45;4.17;;;3.60;;
19183;SDS011;9724;51.194;6.856;2023-02-28T00:05:12;8.10;;;3.50;;
19183;SDS011;9724;51.194;6.856;2023-02-28T00:07:40;3.57;;;2.67;;
19183;SDS011;9724;51.194;6.856;2023-02-28T00:10:08;8.27;;;3.53;;
19183;SDS011;9724;51.194;6.856;2023-02-28T00:12:35;6.00;;;2.80;;
19183;SDS011;9724;51.194;6.856;2023-02-28T00:15:03;9.97;;;4.00;;
19183;SDS011;9724;51.194;6.856;2023-02-28T00:17:31;4.97;;;3.70;;
19183;SDS011;9724;51.194;6.856;2023-02-28T00:19:57;6.20;;;3.43;;
19183;SDS011;9724;51.194;6.856;2023-02-28T00:22:30;6.07;;;3.40;;
19183;SDS011;9724;51.194;6.856;2023-02-28T00:24:56;5.87;;;3.67;;
19183;SDS011;9724;51.194;6.856;2023-02-28T00:27:23;5.97;;;3.37;;
19183;SDS011;9724;51.194;6.856;2023-02-28T00:29:49;8.40;;;3.87;;
19183;SDS011;9724;51.194;6.856;2023-02-28T00:32:16;11.70;;;3.70;;
19183;SDS011;9724;51.194;6.856;2023-02-28T00:34:44;8.43;;;3.83;;
19183;SDS011;9724;51.194;6.856;2023-02-28T00:37:10;7.50;;;3.70;;
19183;SDS011;9724;51.194;6.856;2023-02-28T00:39:37;6.47;;;3.67;;
19183;SDS011;9724;51.194;6.856;2023-02-28T00:42:05;4.93;;;3.40;;
19183;SDS011;9724;51.194;6.856;2023-02-28T00:44:31;4.70;;;3.60;;
19183;SDS011;9724;51.194;6.856;2023-02-28T00:46:58;6.63;;;3.53;;
19183;SDS011;9724;51.194;6.856;2023-02-28T00:49:26;10.10;;;3.73;;
19183;SDS011;9724;51.194;6.856;2023-02-28T00:51:53;5.93;;;3.67;;
19183;SDS011;9724;51.194;6.856;2023-02-28T00:54:20;5.77;;;3.50;;
19183;SDS011;9724;51.194;6.856;2023-02-28T00:56:46;5.13;;;3.40;;
19183;SDS011;9724;51.194;6.856;2023-02-28T00:59:13;7.40;;;3.70;;
19183;SDS011;9724;51.194;6.856;2023-02-28T01:01:39;8.47;;;3.37;;
19183;SDS011;9724;51.194;6.856;2023-02-28T01:04:06;6.87;;;3.40;;
19183;SDS011;9724;51.194;6.856;2023-02-28T01:06:34;5.33;;;3.53;;
19183;SDS011;9724;51.194;6.856;2023-02-28T01:09:01;6.37;;;3.27;;
19183;SDS011;9724;51.194;6.856;2023-02-28T01:11:27;6.60;;;3.50;;
19183;SDS011;9724;51.194;6.856;2023-02-28T01:13:54;5.23;;;3.67;;
19183;SDS011;9724;51.194;6.856;2023-02-28T01:16:20;7.03;;;3.47;;
19183;SDS011;9724;51.194;6.856;2023-02-28T01:18:47;6.07;;;3.57;;
19183;SDS011;9724;51.194;6.856;2023-02-28T01:21:14;5.93;;;3.27;;
19183;SDS011;9724;51.194;6.856;2023-02-28T01:23:42;7.73;;;3.70;;
19183;SDS011;9724;51.194;6.856;2023-02-28T01:26:10;4.60;;;3.57;;
19183;SDS011;9724;51.194;6.856;2023-02-28T01:28:38;7.47;;;3.70;;
19183;SDS011;9724;51.194;6.856;2023-02-28T01:31:05;6.13;;;3.10;;
19183;SDS011;9724;51.194;6.856;2023-02-28T01:33:31;7.23;;;3.80;;
19183;SDS011;9724;51.194;6.856;2023-02-28T01:35:58;7.20;;;3.60;;
19183;SDS011;9724;51.194;6.856;2023-02-28T01:38:24;11.07;;;4.07;;
19183;SDS011;9724;51.194;6.856;2023-02-28T01:40:51;6.97;;;3.57;;
19183;SDS011;9724;51.194;6.856;2023-02-28T01:43:20;8.27;;;3.60;;
19183;SDS011;9724;51.194;6.856;2023-02-28T01:45:48;5.17;;;3.20;;
19183;SDS011;9724;51.194;6.856;2023-02-28T01:48:15;8.90;;;3.93;;
19183;SDS011;9724;51.194;6.856;2023-02-28T01:50:43;5.67;;;3.63;;
19183;SDS011;9724;51.194;6.856;2023-02-28T01:53:11;5.77;;;3.27;;
19183;SDS011;9724;51.194;6.856;2023-02-28T01:55:40;5.87;;;3.57;;
19183;SDS011;9724;51.194;6.856;2023-02-28T01:58:07;5.90;;;3.73;;
19183;SDS011;9724;51.194;6.856;2023-02-28T02:00:34;7.33;;;3.50;;
19183;SDS011;9724;51.194;6.856;2023-02-28T02:03:01;9.27;;;3.87;;
19183;SDS011;9724;51.194;6.856;2023-02-28T02:05:31;5.93;;;3.33;;
19183;SDS011;9724;51.194;6.856;2023-02-28T02:08:01;4.93;;;3.80;;
19183;SDS011;9724;51.194;6.856;2023-02-28T02:10:30;7.13;;;3.70;;
19183;SDS011;9724;51.194;6.856;2023-02-28T02:13:02;5.60;;;3.60;;
19183;SDS011;9724;51.194;6.856;2023-02-28T02:15:38;9.23;;;4.03;;
19183;SDS011;9724;51.194;6.856;2023-02-28T02:18:09;8.03;;;4.23;;
19183;SDS011;9724;51.194;6.856;2023-02-28T02:20:46;7.30;;;4.40;;
19183;SDS011;9724;51.194;6.856;2023-02-28T02:26:50;11.00;;;3.80;;
19183;SDS011;9724;51.194;6.856;2023-02-28T02:29:26;8.20;;;4.70;;
19183;SDS011;9724;51.194;6.856;2023-02-28T02:34:57;9.53;;;4.73;;
19183;SDS011;9724;51.194;6.856;2023-02-28T02:37:28;11.57;;;3.87;;
19183;SDS011;9724;51.194;6.856;2023-02-28T02:39:59;9.87;;;5.17;;
19183;SDS011;9724;51.194;6.856;2023-02-28T02:42:31;10.53;;;5.00;;
19183;SDS011;9724;51.194;6.856;2023-02-28T02:45:03;16.70;;;5.00;;
19183;SDS011;9724;51.194;6.856;2023-02-28T02:47:32;8.17;;;4.57;;
19183;SDS011;9724;51.194;6.856;2023-02-28T02:50:01;8.30;;;4.40;;
19183;SDS011;9724;51.194;6.856;2023-02-28T02:52:32;6.60;;;4.37;;
19183;SDS011;9724;51.194;6.856;2023-02-28T02:55:00;11.57;;;4.77;;
19183;SDS011;9724;51.194;6.856;2023-02-28T02:57:30;6.80;;;4.33;;
19183;SDS011;9724;51.194;6.856;2023-02-28T02:59:59;13.23;;;4.73;;
19183;SDS011;9724;51.194;6.856;2023-02-28T03:02:26;8.40;;;4.47;;
19183;SDS011;9724;51.194;6.856;2023-02-28T03:05:01;13.17;;;5.27;;
19183;SDS011;9724;51.194;6.856;2023-02-28T03:07:29;11.30;;;5.27;;
19183;SDS011;9724;51.194;6.856;2023-02-28T03:09:55;10.00;;;4.77;;
19183;SDS011;9724;51.194;6.856;2023-02-28T03:12:23;8.33;;;4.50;;
19183;SDS011;9724;51.194;6.856;2023-02-28T03:14:56;6.27;;;4.40;;
19183;SDS011;9724;51.194;6.856;2023-02-28T03:17:26;11.70;;;4.83;;
19183;SDS011;9724;51.194;6.856;2023-02-28T03:20:02;10.30;;;4.80;;
19183;SDS011;9724;51.194;6.856;2023-02-28T03:22:40;11.03;;;4.73;;
19183;SDS011;9724;51.194;6.856;2023-02-28T03:25:17;8.57;;;4.80;;
19183;SDS011;9724;51.194;6.856;2023-02-28T03:27:54;10.63;;;4.67;;
19183;SDS011;9724;51.194;6.856;2023-02-28T03:30:27;8.37;;;4.13;;
19183;SDS011;9724;51.194;6.856;2023-02-28T03:32:57;12.10;;;4.53;;
19183;SDS011;9724;51.194;6.856;2023-02-28T03:35:27;9.10;;;4.90;;
19183;SDS011;9724;51.194;6.856;2023-02-28T03:37:59;9.97;;;4.77;;
19183;SDS011;9724;51.194;6.856;2023-02-28T03:40:28;10.03;;;4.30;;
19183;SDS011;9724;51.194;6.856;2023-02-28T03:42:58;9.93;;;4.13;;
19183;SDS011;9724;51.194;6.856;2023-02-28T03:45:28;7.33;;;4.40;;
19183;SDS011;9724;51.194;6.856;2023-02-28T03:47:57;8.97;;;4.00;;
19183;SDS011;9724;51.194;6.856;2023-02-28T03:50:27;7.07;;;3.90;;
19183;SDS011;9724;51.194;6.856;2023-02-28T03:52:58;6.00;;;4.00;;
19183;SDS011;9724;51.194;6.856;2023-02-28T03:55:31;6.50;;;4.00;;
19183;SDS011;9724;51.194;6.856;2023-02-28T03:57:59;10.03;;;4.10;;
19183;SDS011;9724;51.194;6.856;2023-02-28T04:00:30;6.43;;;3.73;;
19183;SDS011;9724;51.194;6.856;2023-02-28T04:02:58;10.60;;;4.17;;
19183;SDS011;9724;51.194;6.856;2023-02-28T04:05:25;7.37;;;4.20;;
19183;SDS011;9724;51.194;6.856;2023-02-28T04:07:52;7.90;;;4.30;;
19183;SDS011;9724;51.194;6.856;2023-02-28T04:10:19;7.90;;;4.53;;
19183;SDS011;9724;51.194;6.856;2023-02-28T04:12:45;12.30;;;4.30;;
19183;SDS011;9724;51.194;6.856;2023-02-28T04:15:12;7.70;;;4.13;;
19183;SDS011;9724;51.194;6.856;2023-02-28T04:17:38;7.97;;;4.03;;
19183;SDS011;9724;51.194;6.856;2023-02-28T04:20:05;7.37;;;4.30;;
19183;SDS011;9724;51.194;6.856;2023-02-28T04:22:35;7.20;;;4.37;;
19183;SDS011;9724;51.194;6.856;2023-02-28T04:25:02;6.53;;;3.67;;
19183;SDS011;9724;51.194;6.856;2023-02-28T04:27:29;4.57;;;3.50;;
19183;SDS011;9724;51.194;6.856;2023-02-28T04:29:58;17.13;;;4.43;;
19183;SDS011;9724;51.194;6.856;2023-02-28T04:32:24;6.07;;;3.83;;
19183;SDS011;9724;51.194;6.856;2023-02-28T04:34:50;7.90;;;3.73;;
19183;SDS011;9724;51.194;6.856;2023-02-28T04:37:17;4.47;;;3.60;;
19183;SDS011;9724;51.194;6.856;2023-02-28T04:39:43;7.80;;;3.57;;
19183;SDS011;9724;51.194;6.856;2023-02-28T04:42:10;6.87;;;3.77;;
19183;SDS011;9724;51.194;6.856;2023-02-28T04:44:37;8.17;;;3.47;;
19183;SDS011;9724;51.194;6.856;2023-02-28T04:47:03;5.57;;;3.40;;
19183;SDS011;9724;51.194;6.856;2023-02-28T04:49:30;6.63;;;3.67;;
19183;SDS011;9724;51.194;6.856;2023-02-28T04:51:56;8.27;;;3.90;;
19183;SDS011;9724;51.194;6.856;2023-02-28T04:54:23;6.63;;;3.63;;
19183;SDS011;9724;51.194;6.856;2023-02-28T04:56:49;11.00;;;4.03;;
19183;SDS011;9724;51.194;6.856;2023-02-28T04:59:16;4.80;;;3.47;;
19183;SDS011;9724;51.194;6.856;2023-02-28T05:01:45;6.60;;;3.40;;
19183;SDS011;9724;51.194;6.856;2023-02-28T05:04:12;6.73;;;3.43;;
19183;SDS011;9724;51.194;6.856;2023-02-28T05:06:38;7.33;;;3.60;;
19183;SDS011;9724;51.194;6.856;2023-02-28T05:09:04;7.23;;;3.73;;
19183;SDS011;9724;51.194;6.856;2023-02-28T05:11:31;4.93;;;3.40;;
19183;SDS011;9724;51.194;6.856;2023-02-28T05:14:00;8.50;;;3.07;;
19183;SDS011;9724;51.194;6.856;2023-02-28T05:16:27;7.10;;;3.47;;
19183;SDS011;9724;51.194;6.856;2023-02-28T05:18:54;4.47;;;3.07;;
19183;SDS011;9724;51.194;6.856;2023-02-28T05:21:22;4.27;;;3.07;;
19183;SDS011;9724;51.194;6.856;2023-02-28T05:23:50;6.13;;;2.70;;
19183;SDS011;9724;51.194;6.856;2023-02-28T05:26:17;5.97;;;2.80;;
19183;SDS011;9724;51.194;6.856;2023-02-28T05:28:43;4.63;;;3.03;;
19183;SDS011;9724;51.194;6.856;2023-02-28T05:31:09;3.07;;;2.70;;
19183;SDS011;9724;51.194;6.856;2023-02-28T05:33:37;5.77;;;3.03;;
19183;SDS011;9724;51.194;6.856;2023-02-28T05:36:04;3.20;;;2.90;;
19183;SDS011;9724;51.194;6.856;2023-02-28T05:38:33;3.87;;;2.47;;
19183;SDS011;9724;51.194;6.856;2023-02-28T05:41:04;6.40;;;2.70;;
19183;SDS011;9724;51.194;6.856;2023-02-28T05:43:31;3.37;;;2.80;;
19183;SDS011;9724;51.194;6.856;2023-02-28T05:45:57;5.37;;;2.90;;
19183;SDS011;9724;51.194;6.856;2023-02-28T05:48:24;4.53;;;2.80;;
19183;SDS011;9724;51.194;6.856;2023-02-28T05:50:52;6.00;;;3.17;;
19183;SDS011;9724;51.194;6.856;2023-02-28T05:53:18;6.17;;;2.70;;
19183;SDS011;9724;51.194;6.856;2023-02-28T05:55:44;4.37;;;2.97;;
19183;SDS011;9724;51.194;6.856;2023-02-28T05:58:10;4.60;;;2.50;;
19183;SDS011;9724;51.194;6.856;2023-02-28T06:00:36;4.73;;;2.80;;
19183;SDS011;9724;51.194;6.856;2023-02-28T06:03:03;4.87;;;2.90;;
19183;SDS011;9724;51.194;6.856;2023-02-28T06:05:29;4.57;;;2.80;;
19183;SDS011;9724;51.194;6.856;2023-02-28T06:07:56;8.83;;;3.30;;
19183;SDS011;9724;51.194;6.856;2023-02-28T06:10:22;12.30;;;3.10;;
19183;SDS011;9724;51.194;6.856;2023-02-28T06:12:49;8.73;;;3.20;;
19183;SDS011;9724;51.194;6.856;2023-02-28T06:15:15;4.20;;;3.07;;
19183;SDS011;9724;51.194;6.856;2023-02-28T06:17:42;6.57;;;2.93;;
19183;SDS011;9724;51.194;6.856;2023-02-28T06:20:09;4.07;;;3.00;;
19183;SDS011;9724;51.194;6.856;2023-02-28T06:22:38;3.97;;;2.90;;
19183;SDS011;9724;51.194;6.856;2023-02-28T06:25:05;3.40;;;3.10;;
19183;SDS011;9724;51.194;6.856;2023-02-28T06:27:33;7.57;;;3.30;;
19183;SDS011;9724;51.194;6.856;2023-02-28T06:29:59;7.67;;;3.10;;
19183;SDS011;9724;51.194;6.856;2023-02-28T06:32:26;3.60;;;2.97;;
19183;SDS011;9724;51.194;6.856;2023-02-28T06:34:52;12.07;;;2.80;;
19183;SDS011;9724;51.194;6.856;2023-02-28T06:37:18;5.30;;;2.90;;
19183;SDS011;9724;51.194;6.856;2023-02-28T06:39:44;3.30;;;3.00;;
19183;SDS011;9724;51.194;6.856;2023-02-28T06:42:11;7.00;;;2.73;;
19183;SDS011;9724;51.194;6.856;2023-02-28T06:44:38;3.83;;;3.00;;
19183;SDS011;9724;51.194;6.856;2023-02-28T06:47:05;5.63;;;3.00;;
19183;SDS011;9724;51.194;6.856;2023-02-28T06:49:35;4.03;;;2.77;;
19183;SDS011;9724;51.194;6.856;2023-02-28T06:52:02;5.43;;;2.70;;
19183;SDS011;9724;51.194;6.856;2023-02-28T06:54:28;4.47;;;2.90;;
19183;SDS011;9724;51.194;6.856;2023-02-28T06:56:54;6.60;;;2.80;;
19183;SDS011;9724;51.194;6.856;2023-02-28T06:59:21;7.77;;;3.53;;
19183;SDS011;9724;51.194;6.856;2023-02-28T07:01:47;2.93;;;2.67;;
19183;SDS011;9724;51.194;6.856;2023-02-28T07:04:14;5.57;;;2.80;;
19183;SDS011;9724;51.194;6.856;2023-02-28T07:06:40;4.17;;;2.80;;
19183;SDS011;9724;51.194;6.856;2023-02-28T07:09:06;4.00;;;2.50;;
19183;SDS011;9724;51.194;6.856;2023-02-28T07:11:33;5.17;;;3.13;;
19183;SDS011;9724;51.194;6.856;2023-02-28T07:13:59;4.57;;;2.60;;
19183;SDS011;9724;51.194;6.856;2023-02-28T07:16:26;5.10;;;2.57;;
19183;SDS011;9724;51.194;6.856;2023-02-28T07:18:53;4.07;;;2.73;;
19183;SDS011;9724;51.194;6.856;2023-02-28T07:21:19;4.33;;;2.17;;
19183;SDS011;9724;51.194;6.856;2023-02-28T07:23:48;13.20;;;2.70;;
19183;SDS011;9724;51.194;6.856;2023-02-28T07:26:15;3.77;;;2.70;;
19183;SDS011;9724;51.194;6.856;2023-02-28T07:28:42;5.60;;;2.80;;
19183;SDS011;9724;51.194;6.856;2023-02-28T07:31:09;3.23;;;2.70;;
19183;SDS011;9724;51.194;6.856;2023-02-28T07:33:37;5.70;;;2.33;;
19183;SDS011;9724;51.194;6.856;2023-02-28T07:36:04;2.53;;;2.33;;
19183;SDS011;9724;51.194;6.856;2023-02-28T07:38:33;3.03;;;2.73;;
19183;SDS011;9724;51.194;6.856;2023-02-28T07:40:59;6.23;;;2.60;;
19183;SDS011;9724;51.194;6.856;2023-02-28T07:43:25;4.13;;;2.80;;
19183;SDS011;9724;51.194;6.856;2023-02-28T07:45:52;4.17;;;2.70;;
19183;SDS011;9724;51.194;6.856;2023-02-28T07:48:18;3.60;;;2.57;;
19183;SDS011;9724;51.194;6.856;2023-02-28T07:50:45;2.90;;;2.60;;
19183;SDS011;9724;51.194;6.856;2023-02-28T07:53:20;5.50;;;2.67;;
19183;SDS011;9724;51.194;6.856;2023-02-28T07:55:47;3.57;;;2.50;;
19183;SDS011;9724;51.194;6.856;2023-02-28T07:58:14;2.40;;;2.20;;
19183;SDS011;9724;51.194;6.856;2023-02-28T08:00:40;2.40;;;2.23;;
19183;SDS011;9724;51.194;6.856;2023-02-28T08:03:08;3.37;;;2.30;;
19183;SDS011;9724;51.194;6.856;2023-02-28T08:05:37;2.40;;;2.20;;
19183;SDS011;9724;51.194;6.856;2023-02-28T08:08:05;3.17;;;2.13;;
19183;SDS011;9724;51.194;6.856;2023-02-28T08:10:31;3.67;;;2.00;;
19183;SDS011;9724;51.194;6.856;2023-02-28T08:12:57;2.97;;;2.77;;
19183;SDS011;9724;51.194;6.856;2023-02-28T08:15:23;4.47;;;2.27;;
19183;SDS011;9724;51.194;6.856;2023-02-28T08:17:49;2.63;;;2.43;;
19183;SDS011;9724;51.194;6.856;2023-02-28T08:20:16;5.20;;;2.50;;
19183;SDS011;9724;51.194;6.856;2023-02-28T08:22:42;7.03;;;2.07;;
19183;SDS011;9724;51.194;6.856;2023-02-28T08:25:11;4.23;;;2.40;;
19183;SDS011;9724;51.194;6.856;2023-02-28T08:27:38;3.70;;;2.00;;
19183;SDS011;9724;51.194;6.856;2023-02-28T08:30:04;6.63;;;2.40;;
19183;SDS011;9724;51.194;6.856;2023-02-28T08:32:31;5.23;;;2.13;;
19183;SDS011;9724;51.194;6.856;2023-02-28T08:34:58;3.37;;;2.17;;
19183;SDS011;9724;51.194;6.856;2023-02-28T08:37:24;2.63;;;1.90;;
19183;SDS011;9724;51.194;6.856;2023-02-28T08:39:51;2.43;;;2.20;;
19183;SDS011;9724;51.194;6.856;2023-02-28T08:42:21;2.03;;;1.93;;
19183;SDS011;9724;51.194;6.856;2023-02-28T08:44:48;3.83;;;2.27;;
19183;SDS011;9724;51.194;6.856;2023-02-28T08:47:14;3.00;;;2.00;;
19183;SDS011;9724;51.194;6.856;2023-02-28T08:49:41;3.73;;;2.10;;
19183;SDS011;9724;51.194;6.856;2023-02-28T08:52:07;2.40;;;2.07;;
19183;SDS011;9724;51.194;6.856;2023-02-28T08:54:34;2.60;;;1.93;;
19183;SDS011;9724;51.194;6.856;2023-02-28T08:57:01;3.87;;;2.00;;
19183;SDS011;9724;51.194;6.856;2023-02-28T08:59:28;2.67;;;1.70;;
19183;SDS011;9724;51.194;6.856;2023-02-28T09:01:55;5.33;;;2.23;;
19183;SDS011;9724;51.194;6.856;2023-02-28T09:04:21;5.10;;;2.47;;
19183;SDS011;9724;51.194;6.856;2023-02-28T09:06:50;1.93;;;1.83;;
19183;SDS011;9724;51.194;6.856;2023-02-28T09:09:16;3.53;;;2.00;;
19183;SDS011;9724;51.194;6.856;2023-02-28T09:11:43;2.00;;;1.70;;
19183;SDS011;9724;51.194;6.856;2023-02-28T09:14:09;2.00;;;1.90;;
19183;SDS011;9724;51.194;6.856;2023-02-28T09:16:36;2.87;;;1.60;;
19183;SDS011;9724;51.194;6.856;2023-02-28T09:19:03;1.60;;;1.50;;
19183;SDS011;9724;51.194;6.856;2023-02-28T09:21:29;2.70;;;1.60;;
19183;SDS011;9724;51.194;6.856;2023-02-28T09:23:56;2.33;;;1.90;;
19183;SDS011;9724;51.194;6.856;2023-02-28T09:26:23;1.90;;;1.80;;
19183;SDS011;9724;51.194;6.856;2023-02-28T09:28:51;1.73;;;1.43;;
19183;SDS011;9724;51.194;6.856;2023-02-28T09:31:20;1.80;;;1.70;;
19183;SDS011;9724;51.194;6.856;2023-02-28T09:33:49;1.80;;;1.70;;
19183;SDS011;9724;51.194;6.856;2023-02-28T09:36:16;2.17;;;1.97;;
19183;SDS011;9724;51.194;6.856;2023-02-28T09:38:43;3.50;;;1.57;;
19183;SDS011;9724;51.194;6.856;2023-02-28T09:41:13;1.70;;;1.60;;
19183;SDS011;9724;51.194;6.856;2023-02-28T09:43:41;1.93;;;1.73;;
19183;SDS011;9724;51.194;6.856;2023-02-28T09:46:12;2.10;;;1.60;;
19183;SDS011;9724;51.194;6.856;2023-02-28T09:48:45;5.50;;;2.47;;
19183;SDS011;9724;51.194;6.856;2023-02-28T09:51:15;1.70;;;1.60;;
19183;SDS011;9724;51.194;6.856;2023-02-28T09:53:53;1.97;;;1.57;;
19183;SDS011;9724;51.194;6.856;2023-02-28T09:56:28;1.77;;;1.40;;
19183;SDS011;9724;51.194;6.856;2023-02-28T09:59:00;2.37;;;1.50;;
19183;SDS011;9724;51.194;6.856;2023-02-28T10:01:30;1.57;;;1.47;;
19183;SDS011;9724;51.194;6.856;2023-02-28T10:04:00;1.80;;;1.53;;
19183;SDS011;9724;51.194;6.856;2023-02-28T10:06:32;1.93;;;1.73;;
19183;SDS011;9724;51.194;6.856;2023-02-28T10:09:02;7.50;;;1.40;;
19183;SDS011;9724;51.194;6.856;2023-02-28T10:11:30;3.10;;;1.43;;
19183;SDS011;9724;51.194;6.856;2023-02-28T10:13:59;1.23;;;1.23;;
19183;SDS011;9724;51.194;6.856;2023-02-28T10:16:29;1.33;;;1.10;;
19183;SDS011;9724;51.194;6.856;2023-02-28T10:18:59;1.27;;;1.20;;
19183;SDS011;9724;51.194;6.856;2023-02-28T10:21:30;2.30;;;1.30;;
19183;SDS011;9724;51.194;6.856;2023-02-28T10:24:02;1.50;;;1.40;;
19183;SDS011;9724;51.194;6.856;2023-02-28T10:26:31;2.13;;;2.00;;
19183;SDS011;9724;51.194;6.856;2023-02-28T10:28:58;1.33;;;1.33;;
19183;SDS011;9724;51.194;6.856;2023-02-28T10:31:25;2.37;;;1.00;;
19183;SDS011;9724;51.194;6.856;2023-02-28T10:33:51;4.33;;;1.63;;
19183;SDS011;9724;51.194;6.856;2023-02-28T10:36:18;1.60;;;1.50;;
19183;SDS011;9724;51.194;6.856;2023-02-28T10:38:47;1.53;;;1.43;;
19183;SDS011;9724;51.194;6.856;2023-02-28T10:41:14;5.77;;;1.60;;
19183;SDS011;9724;51.194;6.856;2023-02-28T10:43:43;1.77;;;1.53;;
19183;SDS011;9724;51.194;6.856;2023-02-28T10:46:12;2.53;;;1.57;;
19183;SDS011;9724;51.194;6.856;2023-02-28T10:48:41;2.10;;;1.30;;
19183;SDS011;9724;51.194;6.856;2023-02-28T10:51:10;1.70;;;1.60;;
19183;SDS011;9724;51.194;6.856;2023-02-28T10:53:39;1.57;;;1.47;;
19183;SDS011;9724;51.194;6.856;2023-02-28T10:56:27;1.60;;;1.50;;
19183;SDS011;9724;51.194;6.856;2023-02-28T10:58:54;2.03;;;1.73;;
19183;SDS011;9724;51.194;6.856;2023-02-28T11:01:23;2.27;;;1.50;;
19183;SDS011;9724;51.194;6.856;2023-02-28T11:03:50;3.03;;;1.20;;
19183;SDS011;9724;51.194;6.856;2023-02-28T11:06:18;3.00;;;1.77;;
19183;SDS011;9724;51.194;6.856;2023-02-28T11:08:47;2.90;;;1.60;;
19183;SDS011;9724;51.194;6.856;2023-02-28T11:11:15;1.80;;;1.70;;
19183;SDS011;9724;51.194;6.856;2023-02-28T11:13:44;1.20;;;1.20;;
19183;SDS011;9724;51.194;6.856;2023-02-28T11:16:12;1.63;;;1.53;;
19183;SDS011;9724;51.194;6.856;2023-02-28T11:18:40;2.10;;;1.80;;
19183;SDS011;9724;51.194;6.856;2023-02-28T11:21:08;1.87;;;1.77;;
19183;SDS011;9724;51.194;6.856;2023-02-28T11:23:36;3.37;;;1.70;;
19183;SDS011;9724;51.194;6.856;2023-02-28T11:26:06;4.83;;;1.60;;
19183;SDS011;9724;51.194;6.856;2023-02-28T11:28:35;1.70;;;1.60;;
19183;SDS011;9724;51.194;6.856;2023-02-28T11:31:05;1.70;;;1.60;;
19183;SDS011;9724;51.194;6.856;2023-02-28T11:33:41;1.63;;;1.53;;
19183;SDS011;9724;51.194;6.856;2023-02-28T11:36:11;2.23;;;1.90;;
19183;SDS011;9724;51.194;6.856;2023-02-28T11:38:39;3.17;;;2.20;;
19183;SDS011;9724;51.194;6.856;2023-02-28T11:41:10;1.73;;;1.63;;
19183;SDS011;9724;51.194;6.856;2023-02-28T11:43:53;3.17;;;1.60;;
19183;SDS011;9724;51.194;6.856;2023-02-28T11:46:30;2.10;;;1.77;;
19183;SDS011;9724;51.194;6.856;2023-02-28T11:49:02;2.10;;;1.70;;
19183;SDS011;9724;51.194;6.856;2023-02-28T11:51:41;1.90;;;1.80;;
19183;SDS011;9724;51.194;6.856;2023-02-28T11:54:21;3.63;;;1.90;;
19183;SDS011;9724;51.194;6.856;2023-02-28T11:56:53;2.13;;;2.00;;
19183;SDS011;9724;51.194;6.856;2023-02-28T11:59:29;3.47;;;1.90;;
19183;SDS011;9724;51.194;6.856;2023-02-28T12:02:06;4.83;;;2.37;;
19183;SDS011;9724;51.194;6.856;2023-02-28T12:04:48;2.10;;;1.90;;
19183;SDS011;9724;51.194;6.856;2023-02-28T12:07:22;3.77;;;1.90;;
19183;SDS011;9724;51.194;6.856;2023-02-28T12:09:55;1.63;;;1.60;;
19183;SDS011;9724;51.194;6.856;2023-02-28T12:12:30;3.17;;;1.93;;
19183;SDS011;9724;51.194;6.856;2023-02-28T12:15:05;2.97;;;2.10;;
19183;SDS011;9724;51.194;6.856;2023-02-28T12:17:59;1.73;;;1.63;;
19183;SDS011;9724;51.194;6.856;2023-02-28T12:20:36;3.17;;;1.80;;
19183;SDS011;9724;51.194;6.856;2023-02-28T12:23:10;3.27;;;1.90;;
19183;SDS011;9724;51.194;6.856;2023-02-28T12:25:50;4.70;;;1.90;;
19183;SDS011;9724;51.194;6.856;2023-02-28T12:28:26;2.53;;;1.73;;
19183;SDS011;9724;51.194;6.856;2023-02-28T12:30:58;2.40;;;2.20;;
19183;SDS011;9724;51.194;6.856;2023-02-28T12:33:28;2.30;;;1.90;;
19183;SDS011;9724;51.194;6.856;2023-02-28T12:35:59;4.00;;;1.83;;
19183;SDS011;9724;51.194;6.856;2023-02-28T12:38:28;2.07;;;1.83;;
19183;SDS011;9724;51.194;6.856;2023-02-28T12:40:58;1.93;;;1.83;;
19183;SDS011;9724;51.194;6.856;2023-02-28T12:43:27;2.10;;;1.90;;
19183;SDS011;9724;51.194;6.856;2023-02-28T12:45:58;2.87;;;1.90;;
19183;SDS011;9724;51.194;6.856;2023-02-28T12:48:27;3.27;;;2.53;;
19183;SDS011;9724;51.194;6.856;2023-02-28T12:50:56;2.87;;;2.10;;
19183;SDS011;9724;51.194;6.856;2023-02-28T12:53:24;2.00;;;1.90;;
19183;SDS011;9724;51.194;6.856;2023-02-28T12:55:56;2.90;;;2.27;;
19183;SDS011;9724;51.194;6.856;2023-02-28T12:58:31;2.37;;;1.87;;
19183;SDS011;9724;51.194;6.856;2023-02-28T13:01:06;3.17;;;2.13;;
19183;SDS011;9724;51.194;6.856;2023-02-28T13:04:08;2.13;;;1.93;;
19183;SDS011;9724;51.194;6.856;2023-02-28T13:06:52;2.77;;;2.20;;
19183;SDS011;9724;51.194;6.856;2023-02-28T13:09:25;3.50;;;2.30;;
19183;SDS011;9724;51.194;6.856;2023-02-28T13:11:52;2.90;;;2.07;;
19183;SDS011;9724;51.194;6.856;2023-02-28T13:14:20;2.23;;;2.03;;
19183;SDS011;9724;51.194;6.856;2023-02-28T13:16:57;1.90;;;1.80;;
19183;SDS011;9724;51.194;6.856;2023-02-28T13:19:29;3.37;;;2.00;;
19183;SDS011;9724;51.194;6.856;2023-02-28T13:21:56;4.07;;;1.80;;
19183;SDS011;9724;51.194;6.856;2023-02-28T13:24:37;2.67;;;2.10;;
19183;SDS011;9724;51.194;6.856;2023-02-28T13:33:19;5.10;;;2.77;;
19183;SDS011;9724;51.194;6.856;2023-02-28T13:35:50;4.37;;;2.03;;
19183;SDS011;9724;51.194;6.856;2023-02-28T13:38:33;5.50;;;2.10;;
19183;SDS011;9724;51.194;6.856;2023-02-28T13:44:07;2.03;;;1.87;;
19183;SDS011;9724;51.194;6.856;2023-02-28T13:46:35;3.63;;;2.40;;
19183;SDS011;9724;51.194;6.856;2023-02-28T13:49:23;2.87;;;2.13;;
19183;SDS011;9724;51.194;6.856;2023-02-28T13:51:52;2.40;;;2.20;;
19183;SDS011;9724;51.194;6.856;2023-02-28T13:54:21;2.30;;;2.10;;
19183;SDS011;9724;51.194;6.856;2023-02-28T13:56:55;2.17;;;2.07;;
19183;SDS011;9724;51.194;6.856;2023-02-28T13:59:29;2.43;;;2.23;;
19183;SDS011;9724;51.194;6.856;2023-02-28T14:02:13;7.80;;;2.30;;
19183;SDS011;9724;51.194;6.856;2023-02-28T14:04:57;2.73;;;2.33;;
19183;SDS011;9724;51.194;6.856;2023-02-28T14:07:28;4.27;;;2.20;;
19183;SDS011;9724;51.194;6.856;2023-02-28T14:10:03;3.50;;;2.30;;
19183;SDS011;9724;51.194;6.856;2023-02-28T14:18:25;5.47;;;2.20;;
19183;SDS011;9724;51.194;6.856;2023-02-28T14:20:55;2.53;;;2.20;;
19183;SDS011;9724;51.194;6.856;2023-02-28T14:23:42;3.40;;;2.77;;
19183;SDS011;9724;51.194;6.856;2023-02-28T14:26:23;2.37;;;2.17;;
19183;SDS011;9724;51.194;6.856;2023-02-28T14:28:59;3.63;;;2.47;;
19183;SDS011;9724;51.194;6.856;2023-02-28T14:31:36;3.30;;;2.50;;
19183;SDS011;9724;51.194;6.856;2023-02-28T14:34:12;3.57;;;2.37;;
19183;SDS011;9724;51.194;6.856;2023-02-28T14:36:46;3.33;;;2.57;;
19183;SDS011;9724;51.194;6.856;2023-02-28T14:39:13;6.37;;;2.43;;
19183;SDS011;9724;51.194;6.856;2023-02-28T14:41:42;2.37;;;2.13;;
19183;SDS011;9724;51.194;6.856;2023-02-28T14:44:15;2.73;;;2.33;;
19183;SDS011;9724;51.194;6.856;2023-02-28T14:46:43;4.83;;;2.60;;
19183;SDS011;9724;51.194;6.856;2023-02-28T14:49:12;2.57;;;2.07;;
19183;SDS011;9724;51.194;6.856;2023-02-28T14:51:41;2.47;;;2.10;;
19183;SDS011;9724;51.194;6.856;2023-02-28T14:54:12;2.37;;;2.27;;
19183;SDS011;9724;51.194;6.856;2023-02-28T14:56:40;2.50;;;2.30;;
19183;SDS011;9724;51.194;6.856;2023-02-28T14:59:17;5.67;;;2.87;;
19183;SDS011;9724;51.194;6.856;2023-02-28T15:01:51;3.13;;;2.83;;
19183;SDS011;9724;51.194;6.856;2023-02-28T15:04:20;3.73;;;2.53;;
19183;SDS011;9724;51.194;6.856;2023-02-28T15:09:33;4.80;;;2.77;;
19183;SDS011;9724;51.194;6.856;2023-02-28T15:12:00;5.83;;;2.63;;
19183;SDS011;9724;51.194;6.856;2023-02-28T15:14:26;4.13;;;2.57;;
19183;SDS011;9724;51.194;6.856;2023-02-28T15:16:55;5.53;;;2.83;;
19183;SDS011;9724;51.194;6.856;2023-02-28T15:19:24;4.73;;;2.70;;
19183;SDS011;9724;51.194;6.856;2023-02-28T15:21:53;2.53;;;2.33;;
19183;SDS011;9724;51.194;6.856;2023-02-28T15:24:27;3.27;;;2.50;;
19183;SDS011;9724;51.194;6.856;2023-02-28T15:27:00;4.77;;;2.50;;
19183;SDS011;9724;51.194;6.856;2023-02-28T15:29:30;3.43;;;2.60;;
19183;SDS011;9724;51.194;6.856;2023-02-28T15:32:00;2.80;;;2.53;;
19183;SDS011;9724;51.194;6.856;2023-02-28T15:34:30;4.13;;;2.60;;
19183;SDS011;9724;51.194;6.856;2023-02-28T15:40:14;2.60;;;2.43;;